Time;durP1;ratioP1;P1;durP2;ratioP2;P2;SDS_P1;SDS_P2;PMS_P1;PMS_P2;Temp;Humidity;BMP_temperature;BMP_pressure;BME280_temperature;BME280_humidity;BME280_pressure;Samples;Min_cycle;Max_cycle;Signal;HPM_P1;HPM_P2
2022/03/31 00:00:47;;;;;;;4.65;2.03;;;0.30;99.90;;;-1.46;73.43;100342.34;5004949;28;20037;-73
2022/03/31 00:03:17;;;;;;;5.03;1.90;;;0.30;99.90;;;-1.50;73.76;100348.38;5019340;28;20025;-74
2022/03/31 00:05:44;;;;;;;4.22;1.88;;;0.30;99.90;;;-1.46;73.11;100344.06;5018896;28;20017;-74
2022/03/31 00:08:13;;;;;;;5.20;1.58;;;0.30;99.90;;;-1.45;73.87;100344.06;5020648;28;20041;-73
2022/03/31 00:10:44;;;;;;;7.45;1.75;;;0.40;99.90;;;-1.46;73.14;100352.66;5021693;28;20466;-74
2022/03/31 00:13:31;;;;;;;6.80;1.85;;;0.40;99.90;;;-1.44;72.71;100344.94;5019998;28;20048;-73
2022/03/31 00:15:58;;;;;;;4.20;1.80;;;0.40;99.90;;;-1.37;73.26;100353.50;5021399;28;20025;-74
2022/03/31 00:18:29;;;;;;;4.22;1.77;;;0.40;99.90;;;-1.39;73.21;100352.66;5017230;28;20017;-74
2022/03/31 00:20:55;;;;;;;10.15;2.25;;;0.40;99.90;;;-1.40;72.99;100350.91;5052010;28;20054;-73
2022/03/31 00:23:21;;;;;;;3.22;1.80;;;0.30;99.90;;;-1.50;73.04;100350.09;5019475;28;20041;-73
2022/03/31 00:25:48;;;;;;;5.20;1.98;;;0.40;99.90;;;-1.43;72.92;100353.53;5020522;28;20018;-73
2022/03/31 00:28:14;;;;;;;6.85;2.38;;;0.30;99.90;;;-1.47;72.70;100358.72;5021215;28;20068;-74
2022/03/31 00:30:41;;;;;;;4.57;1.60;;;0.30;99.90;;;-1.51;72.90;100348.38;5019521;28;22716;-74
2022/03/31 00:33:08;;;;;;;3.60;1.90;;;0.30;99.90;;;-1.58;73.00;100354.44;5025678;28;20028;-73
2022/03/31 00:35:35;;;;;;;7.97;2.50;;;0.30;99.90;;;-1.50;72.70;100350.97;5017546;28;20087;-74
2022/03/31 00:38:01;;;;;;;6.25;2.30;;;0.30;99.90;;;-1.50;72.48;100355.28;5028408;28;20041;-73
2022/03/31 00:40:27;;;;;;;6.38;2.20;;;0.30;99.90;;;-1.59;72.92;100357.88;5021180;28;20759;-74
2022/03/31 00:42:57;;;;;;;8.02;2.28;;;0.20;99.90;;;-1.71;73.20;100356.19;5017642;28;20101;-74
2022/03/31 00:45:32;;;;;;;5.03;1.90;;;0.20;99.90;;;-1.66;73.07;100357.91;5019384;28;20041;-73
2022/03/31 00:47:59;;;;;;;7.07;2.13;;;0.20;99.90;;;-1.69;73.09;100357.03;5018651;28;20053;-73
2022/03/31 00:50:26;;;;;;;5.70;2.08;;;0.10;99.90;;;-1.67;73.01;100358.75;5020255;28;20049;-74
2022/03/31 00:52:53;;;;;;;3.70;1.98;;;0.10;99.90;;;-1.67;72.76;100357.91;5018347;28;20366;-73
2022/03/31 00:55:20;;;;;;;6.28;1.88;;;0.10;99.90;;;-1.70;73.33;100357.91;5019936;28;20614;-74
2022/03/31 00:57:53;;;;;;;6.80;1.88;;;0.10;99.90;;;-1.73;72.74;100355.31;5020239;28;20036;-73
2022/03/31 01:00:19;;;;;;;5.78;2.10;;;0.10;99.90;;;-1.74;72.45;100343.28;5016567;28;20108;-73
2022/03/31 01:02:45;;;;;;;6.55;2.22;;;0.10;99.90;;;-1.77;72.60;100353.59;5019463;28;20112;-74
2022/03/31 01:05:16;;;;;;;6.28;2.10;;;0.00;99.90;;;-1.76;73.12;100356.19;5022289;28;20052;-73
2022/03/31 01:07:42;;;;;;;8.23;2.22;;;0.00;99.90;;;-1.79;72.88;100353.63;5018187;28;20021;-73
2022/03/31 01:10:11;;;;;;;6.35;2.10;;;0.00;99.90;;;-1.83;73.39;100356.22;5020438;28;20029;-73
2022/03/31 01:12:37;;;;;;;4.80;1.73;;;-0.10;99.90;;;-1.93;73.49;100358.81;5021986;28;20026;-74
2022/03/31 01:15:14;;;;;;;6.32;2.20;;;-0.10;99.90;;;-1.90;73.79;100370.84;5023123;28;20049;-74
2022/03/31 01:17:44;;;;;;;8.25;2.00;;;-0.10;99.90;;;-1.92;73.95;100368.28;5021446;28;20029;-74
2022/03/31 01:20:15;;;;;;;9.88;2.35;;;-0.10;99.90;;;-1.96;74.04;100366.56;5023006;28;20017;-73
2022/03/31 01:22:43;;;;;;;4.65;1.98;;;-0.20;99.90;;;-1.98;73.88;100360.53;5026015;28;20371;-73
2022/03/31 01:25:10;;;;;;;3.65;1.88;;;-0.20;99.90;;;-2.04;73.47;100359.69;5033502;28;20430;-73
2022/03/31 01:27:41;;;;;;;4.10;1.77;;;-0.20;99.90;;;-2.03;73.35;100363.97;5025058;28;20036;-74
2022/03/31 01:30:13;;;;;;;4.35;1.92;;;-0.20;99.90;;;-2.00;73.54;100361.41;5024006;28;20040;-74
2022/03/31 01:32:43;;;;;;;6.32;1.90;;;-0.20;99.90;;;-2.01;73.40;100357.94;5022671;28;20498;-74
2022/03/31 01:35:09;;;;;;;5.03;1.77;;;-0.20;99.90;;;-2.03;73.70;100363.97;5025738;28;20194;-73
2022/03/31 01:37:36;;;;;;;3.47;1.77;;;-0.20;99.90;;;-1.99;73.37;100358.81;5022696;28;20116;-74
2022/03/31 01:40:03;;;;;;;8.10;2.05;;;-0.20;99.90;;;-2.08;73.79;100356.25;5022372;28;20060;-74
2022/03/31 01:42:30;;;;;;;9.68;2.17;;;-0.30;99.90;;;-2.16;73.69;100356.25;5021295;28;20025;-73
2022/03/31 01:44:57;;;;;;;4.45;2.05;;;-0.30;99.90;;;-2.15;73.27;100354.53;5037743;28;20114;-74
2022/03/31 01:47:24;;;;;;;6.00;1.90;;;-0.30;99.90;;;-2.14;73.14;100361.41;5022326;28;20084;-74
2022/03/31 01:49:51;;;;;;;6.05;2.28;;;-0.30;99.90;;;-2.17;73.08;100356.25;5021226;28;20644;-74
2022/03/31 01:52:18;;;;;;;4.80;2.08;;;-0.40;99.90;;;-2.24;73.51;100349.41;5023913;28;20052;-74
2022/03/31 01:54:44;;;;;;;4.57;2.20;;;-0.40;99.90;;;-2.23;73.00;100356.25;5024834;28;21506;-73
2022/03/31 01:57:12;;;;;;;10.40;2.47;;;-0.40;99.90;;;-2.25;73.09;100360.56;5022253;28;20075;-73
2022/03/31 01:59:43;;;;;;;5.05;2.10;;;-0.40;99.90;;;-2.26;73.11;100359.69;5020809;28;20049;-74
2022/03/31 02:02:14;;;;;;;7.75;2.08;;;-0.40;99.90;;;-2.32;73.59;100357.97;5022026;28;20104;-74
2022/03/31 02:04:41;;;;;;;5.75;2.20;;;-0.50;99.90;;;-2.31;73.51;100356.25;5029266;28;20022;-73
2022/03/31 02:07:10;;;;;;;5.38;2.17;;;-0.50;99.90;;;-2.34;73.26;100358.84;5022202;28;20033;-74
2022/03/31 02:09:36;;;;;;;4.90;2.40;;;-0.50;99.90;;;-2.38;73.54;100352.81;5020548;28;20101;-74
2022/03/31 02:12:03;;;;;;;5.63;2.35;;;-0.50;99.90;;;-2.39;73.45;100353.69;5022956;28;20037;-74
2022/03/31 02:14:30;;;;;;;6.05;1.73;;;-0.50;99.90;;;-2.37;73.56;100348.53;5003814;28;20477;-74
2022/03/31 02:16:56;;;;;;;4.82;1.70;;;-0.60;99.90;;;-2.47;73.35;100352.81;5020843;28;20370;-74
2022/03/31 02:19:24;;;;;;;7.57;1.80;;;-1.30;99.90;;;-2.43;73.41;100351.97;5022540;28;20113;-74
2022/03/31 02:21:51;;;;;;;6.50;1.90;;;-0.60;99.90;;;-2.51;73.23;100349.34;5028441;28;20026;-74
2022/03/31 02:24:17;;;;;;;6.63;2.13;;;-0.60;99.90;;;-2.52;72.98;100346.81;5003672;28;20018;-74
2022/03/31 02:26:43;;;;;;;5.50;2.45;;;-0.70;99.90;;;-2.55;73.46;100349.34;5020697;28;20564;-74
2022/03/31 02:29:10;;;;;;;3.90;1.60;;;-0.70;99.90;;;-2.61;73.76;100344.19;5024918;28;20021;-73
2022/03/31 02:31:36;;;;;;;6.03;2.30;;;-0.70;99.90;;;-2.60;73.35;100351.09;5021458;28;20541;-74
2022/03/31 02:34:02;;;;;;;6.68;2.08;;;-0.80;99.90;;;-2.67;73.65;100349.38;5022669;28;20041;-74
2022/03/31 02:36:28;;;;;;;10.63;1.92;;;-0.80;99.90;;;-2.64;73.42;100346.78;5023169;28;20091;-74
2022/03/31 02:38:55;;;;;;;8.13;1.67;;;-0.80;99.90;;;-2.72;73.09;100345.06;5023066;28;20045;-74
2022/03/31 02:41:21;;;;;;;5.93;2.22;;;-0.80;99.90;;;-2.73;72.99;100345.06;5022231;28;20436;-73
2022/03/31 02:43:47;;;;;;;1.88;1.10;;;-0.90;99.90;;;-2.82;73.17;100345.03;5022013;28;20022;-74
2022/03/31 02:46:13;;;;;;;4.05;1.95;;;-0.90;99.90;;;-2.76;73.05;100345.91;5020069;28;21603;-74
2022/03/31 02:48:39;;;;;;;6.75;2.08;;;-0.90;99.90;;;-2.82;72.64;100351.06;5019205;28;20446;-74
2022/03/31 02:51:06;;;;;;;3.75;1.98;;;-0.90;99.90;;;-2.78;73.05;100352.78;5023649;28;20390;-74
2022/03/31 02:56:16;;;;;;;6.78;2.25;;;-1.00;99.90;;;-2.90;72.16;100343.28;5020936;28;20091;-74
2022/03/31 02:58:42;;;;;;;7.28;1.75;;;-0.90;99.90;;;-2.81;71.99;100337.28;5020285;28;20029;-74
2022/03/31 03:01:08;;;;;;;5.57;1.83;;;-1.00;99.90;;;-2.78;71.53;100344.19;5022319;28;20122;-74
2022/03/31 03:03:35;;;;;;;4.75;1.63;;;-1.00;99.90;;;-2.86;71.77;100344.16;5022535;28;20022;-73
2022/03/31 03:06:02;;;;;;;7.25;1.90;;;-1.00;99.90;;;-2.86;71.30;100333.88;5021542;28;20022;-74
2022/03/31 03:08:31;;;;;;;4.38;1.85;;;-1.00;99.90;;;-2.88;71.14;100335.56;5025940;28;20017;-73
2022/03/31 03:10:57;;;;;;;5.32;1.65;;;-1.00;99.90;;;-2.82;70.48;100339.88;5032038;28;20521;-73
2022/03/31 03:13:23;;;;;;;5.97;2.10;;;-1.00;99.90;;;-2.84;71.13;100341.59;5026561;28;20039;-74
2022/03/31 03:15:50;;;;;;;4.45;1.60;;;-1.00;99.90;;;-2.81;70.72;100342.44;5030429;28;20515;-74
2022/03/31 03:18:18;;;;;;;4.20;1.65;;;-1.00;99.90;;;-2.83;70.16;100343.31;5020549;28;20025;-74
2022/03/31 03:20:44;;;;;;;4.63;1.65;;;-1.00;99.90;;;-2.78;70.33;100342.47;5022445;28;20397;-74
2022/03/31 03:23:10;;;;;;;4.05;1.65;;;-1.00;99.90;;;-2.78;70.13;100347.63;5020369;28;20101;-74
2022/03/31 03:25:36;;;;;;;4.90;1.75;;;-1.00;99.90;;;-2.82;70.18;100342.47;5036110;28;20017;-73
2022/03/31 03:28:03;;;;;;;5.28;1.02;;;-1.00;99.90;;;-2.86;69.47;100344.16;5024544;28;20029;-73
2022/03/31 03:30:29;;;;;;;4.40;1.63;;;-1.00;99.90;;;-2.92;69.41;100342.44;5004448;28;21569;-74
2022/03/31 03:32:55;;;;;;;4.60;1.50;;;-1.00;99.90;;;-2.88;69.27;100340.72;5019404;28;20040;-73
2022/03/31 03:35:21;;;;;;;3.85;1.20;;;-1.00;99.90;;;-2.86;69.63;100344.16;5018936;28;20033;-73
2022/03/31 03:37:48;;;;;;;3.15;1.45;;;-1.00;99.90;;;-2.92;69.42;100337.28;5021146;28;20482;-74
2022/03/31 03:40:15;;;;;;;2.28;0.60;;;-1.10;99.90;;;-2.91;69.19;100340.72;5018560;28;20037;-74
2022/03/31 03:42:42;;;;;;;5.97;1.58;;;-1.00;99.90;;;-2.84;69.34;100337.31;5027493;28;20095;-74
2022/03/31 03:45:13;;;;;;;1.65;0.95;;;-1.00;99.90;;;-2.83;68.96;100340.72;5019459;28;20120;-74
2022/03/31 03:47:40;;;;;;;8.63;1.50;;;-1.00;99.90;;;-2.82;68.97;100342.47;5019983;28;20033;-74
2022/03/31 03:50:06;;;;;;;4.53;1.23;;;-1.00;99.90;;;-2.84;69.12;100341.59;5023525;28;20033;-73
2022/03/31 03:52:33;;;;;;;3.30;1.48;;;-1.00;99.90;;;-2.81;69.14;100347.59;5018336;28;20025;-73
2022/03/31 03:54:59;;;;;;;3.60;1.35;;;-1.00;99.90;;;-2.87;69.67;100345.03;5020034;28;20071;-75
2022/03/31 03:57:25;;;;;;;3.38;1.70;;;-1.00;99.90;;;-2.84;69.46;100345.03;5021808;28;20389;-73
2022/03/31 03:59:51;;;;;;;2.72;1.40;;;-1.00;99.90;;;-2.81;70.25;100352.75;5036124;28;20028;-73
2022/03/31 04:02:17;;;;;;;3.40;1.45;;;-1.00;99.90;;;-2.88;70.27;100354.47;5017935;28;20099;-74
2022/03/31 04:04:43;;;;;;;3.00;1.35;;;-1.00;99.90;;;-2.89;70.77;100351.91;5020239;28;20487;-74
2022/03/31 04:07:09;;;;;;;9.25;1.42;;;-1.00;99.90;;;-2.91;70.79;100351.91;5018437;28;20036;-73
2022/03/31 04:09:35;;;;;;;5.93;1.08;;;-1.00;99.90;;;-2.95;71.50;100355.31;5018632;28;20363;-74
2022/03/31 04:12:02;;;;;;;4.68;1.88;;;-1.00;99.90;;;-2.88;72.17;100356.19;5022374;28;20529;-74
2022/03/31 04:14:28;;;;;;;4.72;1.45;;;-1.00;99.90;;;-2.90;71.96;100357.91;5021440;28;20044;-74
2022/03/31 04:16:55;;;;;;;2.30;1.00;;;-1.10;99.90;;;-2.95;72.39;100355.31;5019425;28;20045;-73
2022/03/31 04:19:22;;;;;;;4.07;1.75;;;-1.10;99.90;;;-2.96;73.01;100356.19;5020755;28;20036;-74
2022/03/31 04:21:48;;;;;;;4.20;1.50;;;-1.10;99.90;;;-2.94;73.34;100356.16;5022933;28;20041;-73
2022/03/31 04:24:14;;;;;;;5.22;1.70;;;-1.00;99.90;;;-2.90;72.98;100357.91;5017012;28;20482;-73
2022/03/31 04:26:40;;;;;;;5.47;1.42;;;-1.10;99.90;;;-2.96;73.74;100355.31;5021412;28;20762;-74
2022/03/31 04:29:10;;;;;;;5.28;1.48;;;-1.10;99.90;;;-2.95;74.38;100355.31;5019557;28;20030;-73
2022/03/31 04:31:42;;;;;;;6.22;2.13;;;-1.00;99.90;;;-2.85;74.71;100361.38;5017922;28;20017;-73
2022/03/31 04:34:13;;;;;;;7.80;1.35;;;-1.00;99.90;;;-2.89;74.52;100359.63;5016992;28;20040;-74
2022/03/31 04:36:39;;;;;;;5.78;1.88;;;-1.00;99.90;;;-2.78;74.96;100363.09;5016044;28;20436;-74
2022/03/31 04:39:05;;;;;;;2.00;1.00;;;-1.00;99.90;;;-2.90;74.64;100363.91;5002070;28;20041;-74
2022/03/31 04:41:31;;;;;;;2.83;1.23;;;-1.00;99.90;;;-2.79;75.05;100363.94;5017952;28;20026;-74
2022/03/31 04:44:01;;;;;;;2.67;1.35;;;-0.90;99.90;;;-2.75;75.29;100372.53;5020566;28;20068;-73
2022/03/31 04:46:26;;;;;;;7.65;1.90;;;-0.90;99.90;;;-2.73;75.50;100368.25;5018409;28;20074;-73
2022/03/31 04:48:52;;;;;;;3.38;1.60;;;-0.90;99.90;;;-2.70;75.50;100374.28;5018546;28;20017;-73
2022/03/31 04:51:18;;;;;;;8.93;1.70;;;-0.80;99.90;;;-2.59;75.52;100378.56;5027730;28;20497;-74
2022/03/31 04:53:44;;;;;;;1.13;0.60;;;-0.80;99.90;;;-2.59;75.71;100373.41;5017807;28;21721;-73
2022/03/31 04:56:10;;;;;;;5.75;1.90;;;-0.80;99.90;;;-2.55;75.89;100385.44;5023183;28;20059;-74
2022/03/31 04:58:37;;;;;;;7.03;1.50;;;-0.70;99.90;;;-2.49;76.00;100385.47;5047186;28;20033;-74
2022/03/31 05:01:05;;;;;;;4.72;1.58;;;-0.70;99.90;;;-2.44;76.02;100383.78;5031112;28;20135;-74
2022/03/31 05:03:31;;;;;;;9.13;1.85;;;-0.70;99.90;;;-2.40;75.79;100379.47;5027665;28;20037;-74
2022/03/31 05:05:57;;;;;;;3.50;1.85;;;-0.60;99.90;;;-2.24;75.59;100378.63;5019386;28;20037;-74
2022/03/31 05:08:24;;;;;;;5.28;1.75;;;-0.60;99.90;;;-2.22;75.22;100373.47;5021903;28;20389;-73
2022/03/31 05:10:50;;;;;;;6.47;2.28;;;-0.50;99.90;;;-2.14;75.28;100377.75;5019721;28;20037;-74
2022/03/31 05:13:16;;;;;;;3.25;1.63;;;-0.40;99.90;;;-2.16;75.49;100376.03;5019046;28;20029;-74
2022/03/31 05:15:42;;;;;;;2.28;1.33;;;-0.40;99.90;;;-2.10;74.93;100378.59;5017843;28;20474;-74
2022/03/31 05:18:08;;;;;;;3.55;1.75;;;-0.40;99.90;;;-2.05;75.05;100387.22;5021498;28;20029;-74
2022/03/31 05:20:34;;;;;;;6.07;1.15;;;-0.30;99.90;;;-2.06;75.10;100386.34;5021058;28;20075;-74
2022/03/31 05:23:00;;;;;;;3.33;1.65;;;-0.30;99.90;;;-1.88;74.69;100394.91;5002982;28;20049;-74
2022/03/31 05:25:26;;;;;;;4.50;1.92;;;-0.20;99.90;;;-1.68;74.10;100388.03;5019676;28;20385;-74
2022/03/31 05:27:52;;;;;;;5.50;1.67;;;-0.10;99.90;;;-1.54;72.95;100389.72;5020611;28;20017;-74
2022/03/31 05:30:19;;;;;;;4.60;1.70;;;0.00;99.90;;;-1.17;72.15;100395.59;5019082;28;20032;-74
2022/03/31 05:32:47;;;;;;;5.25;1.17;;;0.10;99.90;;;-1.30;70.97;100394.78;5017500;28;21592;-74
2022/03/31 05:35:14;;;;;;;2.03;0.90;;;0.20;99.90;;;-1.43;70.66;100393.13;5017436;28;20053;-74
2022/03/31 05:37:41;;;;;;;5.55;1.00;;;0.20;99.90;;;-1.28;70.80;100395.66;5020145;28;20120;-74
2022/03/31 05:40:09;;;;;;;3.10;0.75;;;0.30;99.90;;;-1.29;70.07;100395.69;5020299;28;20068;-74
2022/03/31 05:42:37;;;;;;;2.65;1.40;;;0.30;99.90;;;-1.21;69.46;100405.97;5016581;28;20149;-74
2022/03/31 05:45:06;;;;;;;5.35;1.60;;;0.40;99.90;;;-1.05;69.59;100395.56;5018305;28;20029;-74
2022/03/31 05:47:33;;;;;;;3.22;1.40;;;0.40;99.90;;;-0.92;69.39;100405.84;5017610;28;20087;-74
2022/03/31 05:49:59;;;;;;;4.70;1.50;;;0.50;99.90;;;-0.88;68.25;100407.56;5021057;28;20044;-74
2022/03/31 05:52:25;;;;;;;7.20;1.40;;;0.60;99.90;;;-0.72;68.26;100408.34;5032952;28;20090;-74
2022/03/31 05:54:51;;;;;;;4.15;2.08;;;0.60;99.90;;;-0.44;67.38;100409.03;5018852;28;20401;-74
2022/03/31 05:57:17;;;;;;;4.18;1.10;;;0.60;99.90;;;-0.21;65.91;100401.09;5020436;28;20036;-74
2022/03/31 05:59:44;;;;;;;4.47;1.55;;;1.00;99.90;;;0.53;64.50;100409.06;5022554;28;20048;-74
2022/03/31 06:02:11;;;;;;;4.43;1.67;;;1.20;99.90;;;1.20;62.20;100415.16;5023769;28;20033;-75
2022/03/31 06:04:39;;;;;;;6.47;1.67;;;1.50;99.90;;;1.59;61.32;100419.84;5023371;28;20021;-74
2022/03/31 06:07:07;;;;;;;5.30;1.83;;;1.80;99.90;;;2.26;59.97;100421.34;5021834;28;20544;-74
2022/03/31 06:09:33;;;;;;;19.98;2.25;;;2.00;99.90;;;2.80;57.52;100425.56;5011982;28;20502;-74
2022/03/31 06:12:00;;;;;;;6.25;1.48;;;2.40;99.90;;;3.19;54.99;100430.00;5029372;28;20128;-74
2022/03/31 06:14:27;;;;;;;3.30;1.27;;;2.70;99.90;;;2.71;54.62;100432.69;5035390;28;20064;-74
2022/03/31 06:16:53;;;;;;;7.50;1.17;;;2.70;99.90;;;1.75;56.03;100430.84;5032422;28;20036;-74
2022/03/31 06:19:19;;;;;;;4.57;1.50;;;2.60;99.90;;;1.78;57.15;100436.00;5028917;28;20147;-74
2022/03/31 06:21:45;;;;;;;3.63;1.60;;;2.60;99.90;;;1.81;56.57;100438.53;5020678;28;20104;-74
2022/03/31 06:24:11;;;;;;;7.68;2.05;;;2.60;99.90;;;2.78;55.70;100442.09;5023172;28;20334;-74
2022/03/31 06:26:38;;;;;;;3.65;1.20;;;3.10;99.90;;;4.40;52.46;100440.19;5020766;28;20028;-74
2022/03/31 06:29:06;;;;;;;5.30;1.20;;;3.60;99.90;;;5.68;49.45;100452.25;5024053;28;20060;-74
2022/03/31 06:31:32;;;;;;;4.00;1.48;;;4.10;99.90;;;4.91;47.79;100457.13;5021451;28;20374;-74
2022/03/31 06:33:58;;;;;;;3.53;1.20;;;4.00;99.90;;;3.47;49.59;100446.72;5018153;28;20041;-74
2022/03/31 06:36:25;;;;;;;3.35;1.35;;;4.00;99.90;;;4.21;50.88;100452.84;5023062;28;20130;-74
2022/03/31 06:38:51;;;;;;;4.07;1.30;;;4.00;99.90;;;4.42;50.14;100456.66;5035331;28;20033;-74
2022/03/31 06:41:18;;;;;;;3.30;1.50;;;4.30;99.90;;;5.68;48.34;100468.81;5021270;28;20029;-74
2022/03/31 06:43:48;;;;;;;2.00;1.00;;;4.40;99.90;;;4.47;47.80;100464.34;5024296;28;20010;-74
2022/03/31 06:46:16;;;;;;;3.95;1.27;;;4.30;99.90;;;3.29;50.02;100473.16;5033402;28;20060;-72
2022/03/31 06:48:48;;;;;;;9.80;0.80;;;4.00;99.90;;;3.58;50.59;100482.09;5020400;28;20021;-74
2022/03/31 06:51:16;;;;;;;5.63;1.33;;;4.30;99.90;;;6.45;47.43;100489.91;5021381;28;20021;-74
2022/03/31 06:53:44;;;;;;;4.05;1.10;;;5.30;99.90;;;10.31;40.47;100503.00;5021160;28;20044;-74
2022/03/31 06:56:14;;;;;;;2.92;1.20;;;6.70;99.90;;;12.26;35.54;100518.25;5021858;28;20502;-74
2022/03/31 06:58:40;;;;;;;5.55;1.23;;;7.80;97.30;;;12.59;34.12;100522.50;5004690;28;20120;-73
2022/03/31 07:01:06;;;;;;;4.10;1.10;;;8.40;95.40;;;12.43;34.21;100533.97;5036191;28;20045;-76
2022/03/31 07:03:32;;;;;;;2.28;1.20;;;9.30;93.50;;;13.44;31.73;100536.88;5021171;28;20091;-72
2022/03/31 07:05:59;;;;;;;5.53;1.40;;;10.30;93.00;;;15.46;30.69;100554.53;5023594;28;20401;-72
2022/03/31 07:08:25;;;;;;;10.43;1.00;;;11.30;90.80;;;13.90;29.73;100550.69;5018993;28;20421;-72
2022/03/31 07:10:51;;;;;;;21.55;2.42;;;11.00;89.40;;;13.14;31.68;100561.53;5020634;28;20661;-74
2022/03/31 07:13:18;;;;;;;4.88;1.20;;;11.00;89.00;;;12.54;31.95;100570.31;5019639;28;20040;-72
2022/03/31 07:15:44;;;;;;;2.47;1.17;;;10.70;88.70;;;12.62;32.25;100581.31;5021104;28;20124;-72
2022/03/31 07:18:10;;;;;;;2.17;0.82;;;10.20;83.00;;;11.25;31.63;100575.53;5020612;28;20029;-75
2022/03/31 07:20:37;;;;;;;3.13;0.90;;;10.30;84.70;;;11.62;31.19;100573.59;5024701;28;20023;-72
2022/03/31 07:23:04;;;;;;;2.67;1.10;;;10.60;84.30;;;12.41;31.30;100588.66;5035894;28;20017;-72
2022/03/31 07:25:30;;;;;;;6.30;0.85;;;11.30;81.70;;;13.74;29.43;100603.75;5020372;28;20014;-72
2022/03/31 07:27:56;;;;;;;2.55;1.00;;;11.20;77.00;;;12.30;29.27;100601.63;5020927;28;20730;-72
2022/03/31 07:30:24;;;;;;;4.20;1.30;;;11.70;77.40;;;13.25;29.27;100597.91;5003168;28;20024;-74
2022/03/31 07:33:03;;;;;;;5.60;1.00;;;11.90;78.70;;;12.41;29.34;100603.66;5017975;28;20026;-74
2022/03/31 07:35:34;;;;;;;1.70;0.93;;;11.30;76.40;;;10.11;31.27;100582.00;5019557;28;20094;-74
2022/03/31 07:38:04;;;;;;;5.68;0.60;;;10.20;76.00;;;8.83;32.37;100593.78;5022466;28;20045;-72
2022/03/31 07:40:31;;;;;;;3.47;1.08;;;10.00;79.20;;;10.29;32.25;100589.09;5019962;28;20443;-75
2022/03/31 07:42:57;;;;;;;3.25;1.13;;;10.00;81.30;;;10.23;33.43;100589.34;5019383;28;20029;-71
2022/03/31 07:45:25;;;;;;;1.23;0.80;;;10.30;80.50;;;10.30;32.55;100603.09;5021779;28;20164;-75
2022/03/31 07:47:51;;;;;;;4.82;1.23;;;10.40;82.90;;;11.01;33.81;100600.50;5021927;28;20068;-75
2022/03/31 07:50:19;;;;;;;3.65;1.40;;;10.80;81.80;;;11.40;32.74;100605.53;5019152;28;20099;-71
2022/03/31 07:52:45;;;;;;;1.85;0.90;;;10.90;78.30;;;10.15;32.09;100617.78;5017689;28;20098;-75
2022/03/31 07:55:14;;;;;;;2.25;0.80;;;10.00;78.30;;;8.92;33.62;100613.53;5021391;28;20038;-72
2022/03/31 07:57:40;;;;;;;3.72;0.95;;;9.60;78.20;;;8.91;34.29;100621.47;5021939;28;20021;-72
2022/03/31 08:00:11;;;;;;;1.13;0.47;;;9.90;78.80;;;8.71;32.89;100614.41;5018914;28;20037;-72
2022/03/31 08:02:42;;;;;;;2.55;0.68;;;9.40;77.80;;;8.11;33.50;100614.09;5019347;28;20366;-71
2022/03/31 08:05:15;;;;;;;7.60;0.70;;;9.00;77.50;;;7.46;34.45;100620.88;5019040;28;20116;-71
2022/03/31 08:07:41;;;;;;;3.75;0.88;;;8.30;77.70;;;6.88;34.30;100628.94;5021229;28;20486;-74
2022/03/31 08:10:08;;;;;;;3.63;0.57;;;8.20;79.00;;;6.38;34.83;100644.47;5026521;28;20033;-75
2022/03/31 08:12:35;;;;;;;1.85;0.70;;;8.20;78.90;;;6.88;34.58;100615.84;5018714;28;20017;-74
2022/03/31 08:15:04;;;;;;;7.13;1.13;;;8.20;77.80;;;7.10;35.01;100619.44;5019038;28;20061;-74
2022/03/31 08:17:30;;;;;;;3.25;1.00;;;7.50;76.70;;;6.04;34.52;100628.03;5019365;28;20036;-74
2022/03/31 08:19:57;;;;;;;2.53;0.88;;;7.40;79.50;;;5.76;36.11;100620.09;5022162;28;20029;-74
2022/03/31 08:22:23;;;;;;;3.47;0.88;;;6.70;81.20;;;4.91;37.81;100616.28;5017141;28;21143;-75
2022/03/31 08:24:50;;;;;;;7.57;1.25;;;6.40;84.80;;;5.11;39.06;100600.09;5021447;28;20025;-74
2022/03/31 08:27:16;;;;;;;4.78;1.00;;;6.60;82.20;;;5.50;37.76;100607.75;5017984;28;20039;-73
2022/03/31 08:29:42;;;;;;;1.88;0.82;;;6.70;82.00;;;5.43;37.17;100607.09;5024013;28;20394;-73
2022/03/31 08:32:09;;;;;;;1.80;0.60;;;6.90;83.70;;;5.30;37.18;100605.69;5038137;28;20105;-74
2022/03/31 08:34:38;;;;;;;4.97;0.95;;;6.70;79.50;;;5.35;36.29;100627.31;5015926;28;20398;-74
2022/03/31 08:37:04;;;;;;;2.05;0.63;;;6.50;79.50;;;4.88;36.23;100618.94;5039883;28;20029;-74
2022/03/31 08:39:30;;;;;;;1.05;0.52;;;6.40;79.70;;;5.04;36.14;100612.47;5019116;28;20535;-73
2022/03/31 08:41:56;;;;;;;2.70;0.70;;;6.70;80.20;;;5.91;35.74;100613.56;5017911;28;20025;-73
2022/03/31 08:44:23;;;;;;;2.15;1.05;;;6.90;78.00;;;5.89;34.86;100631.91;5015626;28;20056;-73
2022/03/31 08:46:50;;;;;;;2.38;0.90;;;7.20;81.10;;;6.18;35.59;100631.97;5037736;28;20029;-73
2022/03/31 08:49:17;;;;;;;1.75;0.90;;;7.10;81.30;;;5.66;36.74;100629.97;5020795;28;20036;-72
2022/03/31 08:51:45;;;;;;;3.00;1.13;;;6.70;81.70;;;5.03;37.54;100622.94;5018889;28;20040;-74
2022/03/31 08:54:12;;;;;;;2.00;0.43;;;6.00;80.80;;;4.18;37.76;100631.88;5024068;28;20048;-73
2022/03/31 08:56:39;;;;;;;1.73;0.80;;;5.70;81.10;;;3.99;38.32;100624.44;5014071;28;20028;-73
2022/03/31 08:59:09;;;;;;;4.68;0.70;;;5.40;81.50;;;3.46;38.19;100642.03;5015063;28;20040;-73
2022/03/31 09:01:39;;;;;;;1.10;0.60;;;5.10;83.80;;;3.67;39.21;100627.72;5021702;28;20058;-72
2022/03/31 09:04:22;;;;;;;1.80;0.80;;;5.40;87.10;;;4.35;40.26;100634.97;5020915;28;20524;-73
2022/03/31 09:07:02;;;;;;;5.22;0.77;;;5.60;89.40;;;4.29;41.22;100640.31;5021223;28;20486;-73
2022/03/31 09:09:28;;;;;;;2.40;0.85;;;5.50;88.50;;;4.07;41.20;100627.75;5034816;28;21417;-73
2022/03/31 09:11:54;;;;;;;7.60;0.98;;;5.30;87.80;;;3.99;41.24;100632.25;5019866;28;20123;-73
2022/03/31 09:14:32;;;;;;;5.05;1.10;;;5.40;89.60;;;4.28;41.81;100634.25;5018895;28;20045;-71
2022/03/31 09:17:14;;;;;;;4.05;0.80;;;5.30;90.40;;;4.12;42.51;100635.47;5019330;28;20441;-75
2022/03/31 09:19:43;;;;;;;1.23;0.55;;;5.30;90.10;;;3.62;42.91;100632.16;5011464;28;20025;-75
2022/03/31 09:22:11;;;;;;;3.80;0.80;;;4.90;90.40;;;3.31;43.61;100637.09;5019050;28;20022;-73
2022/03/31 09:24:37;;;;;;;6.40;0.95;;;4.60;90.40;;;3.06;43.66;100627.94;5017145;28;20040;-75
2022/03/31 09:27:05;;;;;;;11.57;1.30;;;4.80;91.60;;;3.40;44.54;100616.94;5023981;28;20475;-75
2022/03/31 09:29:33;;;;;;;3.45;0.90;;;4.70;91.80;;;3.24;45.17;100634.59;5026031;28;20045;-74
2022/03/31 09:32:12;;;;;;;2.30;0.93;;;4.90;92.60;;;3.83;45.56;100621.31;5021881;28;20026;-74
2022/03/31 09:34:43;;;;;;;3.10;1.20;;;4.80;91.30;;;3.55;44.44;100618.41;5023747;28;20041;-72
2022/03/31 09:37:10;;;;;;;3.53;0.75;;;5.10;92.00;;;3.78;44.01;100623.16;5038382;28;20425;-73
2022/03/31 09:39:37;;;;;;;5.53;0.73;;;5.10;91.60;;;3.86;44.21;100626.44;5023815;28;20029;-72
2022/03/31 09:42:14;;;;;;;3.17;1.13;;;4.90;90.70;;;3.63;43.75;100623.47;5029847;28;20056;-72
2022/03/31 09:44:42;;;;;;;5.35;0.70;;;4.90;90.60;;;3.57;43.62;100624.44;5022525;28;20018;-72
2022/03/31 09:47:10;;;;;;;6.07;1.40;;;5.00;90.60;;;3.70;43.41;100623.31;5019241;28;20093;-71
2022/03/31 09:49:36;;;;;;;2.97;0.60;;;5.00;90.20;;;3.18;43.12;100639.06;5023187;28;20018;-75
2022/03/31 09:52:07;;;;;;;5.75;1.90;;;4.80;90.40;;;3.44;43.62;100621.22;5026738;28;20567;-75
2022/03/31 09:54:35;;;;;;;6.45;1.05;;;4.90;90.70;;;3.60;43.46;100621.75;5067117;22;20078;-75
2022/03/31 09:57:09;;;;;;;2.92;1.17;;;4.80;90.30;;;3.29;43.46;100630.16;5022121;28;20029;-74
2022/03/31 09:59:38;;;;;;;2.00;0.90;;;5.00;90.90;;;3.72;43.65;100619.84;5022077;28;20072;-73
2022/03/31 10:02:06;;;;;;;5.97;0.90;;;5.10;91.40;;;3.84;43.77;100627.38;5015002;28;20795;-75
2022/03/31 10:04:34;;;;;;;2.53;1.05;;;5.10;90.10;;;3.75;42.84;100618.00;5000184;28;20098;-75
2022/03/31 10:07:02;;;;;;;3.40;0.90;;;4.90;90.00;;;3.36;42.87;100615.28;5001097;28;20112;-76
2022/03/31 10:09:32;;;;;;;2.47;1.17;;;5.00;90.50;;;3.65;43.40;100614.75;4989098;28;20021;-75
2022/03/31 10:12:24;;;;;;;2.55;0.70;;;4.90;89.80;;;3.55;42.29;100625.38;5004505;28;20021;-72
2022/03/31 10:15:31;;;;;;;3.72;1.15;;;5.10;90.10;;;3.80;42.22;100610.97;5010786;28;20025;-72
2022/03/31 10:18:00;;;;;;;8.68;1.13;;;5.00;90.10;;;3.47;42.89;100623.75;5014552;28;20037;-71
2022/03/31 10:20:27;;;;;;;4.85;1.00;;;4.80;89.50;;;3.40;42.59;100627.34;5019039;28;20115;-72
2022/03/31 10:25:49;;;;;;;6.55;1.15;;;5.10;88.00;;;3.86;41.30;100626.44;5035801;28;20076;-72